Address 0x2ce1d0ffd7e869d9df33e28552b12ddded326706

Txn Hash
Block
From
To
Value [Txn Fee]
0x3799df6ea9d7cd2cb1d40b2e92f305e16bf28228ea584451ee98a63bd986600a81708332021-04-21 10:57:521 min ago0x2ce1d0ffd7e869d9df33e28552b12ddded326706OUT0x28d8e86ad82e60fd5ebe82107e245d33505815ee5 BNB0.000315
0x2f911c74a31539e535668bf5486b8969302be80483d64eb9ebe92447ac1a056c81708192021-04-21 10:57:102 mins ago0x2ce1d0ffd7e869d9df33e28552b12ddded326706OUT0x8c27bb51445da6621ec13024dcbface4fba795625 BNB0.000315
0xa1c82559895bee50e32f29888e592569b7a15db925b4a36cbe6e41c9fdf1a78781707992021-04-21 10:56:103 mins ago0x2ce1d0ffd7e869d9df33e28552b12ddded326706OUT0xe664364dcb53671cd5dde04953a9314dc76dc9175 BNB0.000315
0x8f13541425bda17040609c036c83bd62cd4707916400b6f8df8ef12520d3857a81707842021-04-21 10:55:253 mins ago0x2ce1d0ffd7e869d9df33e28552b12ddded326706OUT 0x8301f2213c0eed49a7e28ae4c3e91722919b8b470 BNB0.00054105
0xb69fd5f77e4a8e9416af323dfaa3386b19fc4b90cb284c111404a3d0dca6a69081707492021-04-21 10:53:405 mins ago0x2ce1d0ffd7e869d9df33e28552b12ddded326706OUT0xe00d56163f73debdc24bca6fb3eb2efb91d50a8b2.5 BNB0.000315
0x05d3518305378a5aecf059bdc21b7fd39a9184333b4bcb74c03c4c346122b5c781705972021-04-21 10:46:0413 mins ago0x2ce1d0ffd7e869d9df33e28552b12ddded326706OUT0x9b80e612df42ab821c1c69df0e29bad8cb75a3485 BNB0.000315
0x46096df37701fbe1b3d1a3cf2fc2a17956d1115773ac26037facabbf3a9899b681705132021-04-21 10:41:5217 mins ago0x2ce1d0ffd7e869d9df33e28552b12ddded326706OUT0x28d8e86ad82e60fd5ebe82107e245d33505815ee5 BNB0.000315
0x8fba9f0533b6fafea4d80bbd7107ef28e3e49288e5aa96fcfb68af66b6ff918781704982021-04-21 10:41:0718 mins ago0x2ce1d0ffd7e869d9df33e28552b12ddded326706OUT0xe664364dcb53671cd5dde04953a9314dc76dc9175 BNB0.000315
0xf891cbfc21b126e1fda0ea5bad1d924d3c43226f39c4c314ab6b9951ddbff7a481704892021-04-21 10:40:4018 mins ago0x2ce1d0ffd7e869d9df33e28552b12ddded326706OUT0x886cef488e687ce5326fea5e30ef6f81b5ab65aa5 BNB0.000315
0x13e8e29fbdb80114de72284daaa84387ab6fd69db3f5753593c6c6f9c500086781704652021-04-21 10:39:2819 mins ago0x2ce1d0ffd7e869d9df33e28552b12ddded326706OUT 0x8301f2213c0eed49a7e28ae4c3e91722919b8b470 BNB0.00054105
0x1f0f6524937ff12531ca2286c23508da5efc4be81d5c0bac9665481766bd533e81704102021-04-21 10:36:4322 mins ago0x2ce1d0ffd7e869d9df33e28552b12ddded326706OUT 0xa11c8d9dc9b66e209ef60f0c8d969d3cd988782c0 BNB0.00076569
0xd266d5eb8ae7a8afe93a9eebe16efbd58b0c4df5376cd89251688d92c5d30ea781702962021-04-21 10:31:0128 mins ago0x2ce1d0ffd7e869d9df33e28552b12ddded326706OUT0x0112aed1444d07c566c3ea15e89e6150994aaff55 BNB0.000315
0xa6379a3c66b972dd476c04acc3920506ca420e50445101ed3e2b1886caf08b6d81701982021-04-21 10:26:0733 mins ago0x2ce1d0ffd7e869d9df33e28552b12ddded326706OUT0xe664364dcb53671cd5dde04953a9314dc76dc9175 BNB0.000315
0x98a0e6d4e055df26c0643273cd03496e111dcbcc7373adedb8aebc1c24e403a881701922021-04-21 10:25:4933 mins ago0x2ce1d0ffd7e869d9df33e28552b12ddded326706OUT0x28d8e86ad82e60fd5ebe82107e245d33505815ee5 BNB0.000315
0x136c6d5da924ee82a5fc2b122775ba3104ebe85be1abfc1c2254b0805a72336981701432021-04-21 10:23:2235 mins ago0x2ce1d0ffd7e869d9df33e28552b12ddded326706OUT 0x8301f2213c0eed49a7e28ae4c3e91722919b8b470 BNB0.00054105
0x59cb23097398a0e6516536ca9d6c5ed22605388ea43d2cae060936342a805b6981701142021-04-21 10:21:5537 mins ago0x2ce1d0ffd7e869d9df33e28552b12ddded326706OUT 0x8301f2213c0eed49a7e28ae4c3e91722919b8b470 BNB0.00054141
0xafba9b0858106918a12df9a1ce81ce3804d0cc4eaa6b54a3474761b456b890be81700992021-04-21 10:21:1038 mins ago0x2ce1d0ffd7e869d9df33e28552b12ddded326706OUT0x9b80e612df42ab821c1c69df0e29bad8cb75a3485 BNB0.000315
0xf08d451303f325c00095a1a768aa2d5737c9f8430a96650aa80789e94949aa9d81700982021-04-21 10:21:0738 mins ago0x2ce1d0ffd7e869d9df33e28552b12ddded326706OUT0x7d431f497520f266937c0417d6e2f64a47ccaaca5 BNB0.000315
0xdae9b391266f6b77d15dd21e2bb2eac72842bd0be43790ca4674ba69a84edd4d81700672021-04-21 10:19:3439 mins ago0x2ce1d0ffd7e869d9df33e28552b12ddded326706OUT0x954a7238397d2a62883214867b74eb5659f254e85 BNB0.000315
0x0a461553472bb7dc6e435b697440341451a5ec2f5c66d9a381d2a3fdcc1c31e181698972021-04-21 10:11:0448 mins ago0x2ce1d0ffd7e869d9df33e28552b12ddded326706OUT0xe664364dcb53671cd5dde04953a9314dc76dc9175 BNB0.000315
0x83aad35f4caa75e068f8a41971085bbc9f6c9e8b0d8903f807cbf01dc5e06ddb81698712021-04-21 10:09:4649 mins ago0x2ce1d0ffd7e869d9df33e28552b12ddded326706OUT0x28d8e86ad82e60fd5ebe82107e245d33505815ee5 BNB0.000315
0x1b32ddedc88a76490799e84674c61050b18ff3c349ed345dbc0f662815b5aacd81698502021-04-21 10:08:4350 mins ago0x2ce1d0ffd7e869d9df33e28552b12ddded326706OUT0x859a8f0a4395cee0d85497884bf55450a09ded175 BNB0.000315
0x5d5acb23593e382a5194472f44370fc399e70cdfb6e1db76945adddc11fb4f4b81698472021-04-21 10:08:3450 mins ago0x2ce1d0ffd7e869d9df33e28552b12ddded326706OUT0xf6d732920fceebd8296d4a6c76da82c2817d4e875 BNB0.000315
0xceb553f65b324efd207d45515eca7b7a0156d830b94fb2edafa6d1efd4ccc27781698402021-04-21 10:08:1351 mins ago0x2ce1d0ffd7e869d9df33e28552b12ddded326706OUT0x0112aed1444d07c566c3ea15e89e6150994aaff55 BNB0.000315
0x6b5c38f42c51839d759944b56ff849f35a82ac715f98b74ad16ce132a43110d081698232021-04-21 10:07:2251 mins ago0x2ce1d0ffd7e869d9df33e28552b12ddded326706OUT 0x8301f2213c0eed49a7e28ae4c3e91722919b8b470 BNB0.00054105
[ Download CSV Export 
Latest 5 internal transactions
Parent Txn Hash Block From To Value
0x9d0cb5ed91dddb3802c47b1437ab347bdb0d9743d604f7c9a82738e571ef877b79938792021-04-15 7:30:096 days 3 hrs ago 0x2e7222e51c0f6e98610a1543aa3836e092cde62c0x2ce1d0ffd7e869d9df33e28552b12ddded326706111 BNB
0x3a8713589e9b21e85d7ff39e221fb0ef81c17d98cd8e8442fc358ee55c9a7e0358814222021-01-31 16:55:5679 days 18 hrs ago 0x2e7222e51c0f6e98610a1543aa3836e092cde62c0x2ce1d0ffd7e869d9df33e28552b12ddded3267065,000 BNB
0xb48d1265a43b91646c063dceea46db0ee618c4d7344b205c159355756c42127258813822021-01-31 16:53:5679 days 18 hrs ago 0x2e7222e51c0f6e98610a1543aa3836e092cde62c0x2ce1d0ffd7e869d9df33e28552b12ddded32670610,000 BNB
0x95b5e7e5a8f6ab728846370bdd7a1163bf64a408ab6687ed327b9f5845622d0c58808582021-01-31 16:27:4479 days 18 hrs ago 0x2e7222e51c0f6e98610a1543aa3836e092cde62c0x2ce1d0ffd7e869d9df33e28552b12ddded3267061,111 BNB
0x798c49bce2bbd5bc2b35f2f75b6d7978c7611afe35b3d39f421405815d5e555833885232020-11-05 9:21:46167 days 1 hr ago 0x2e7222e51c0f6e98610a1543aa3836e092cde62c0x2ce1d0ffd7e869d9df33e28552b12ddded326706282.92675971 BNB
[ Download CSV Export 
Loading

Contract Name:
0 BNB

Compiler Version
0

Optimization Enabled:
0 BNB

Other Settings:
-NA-
Block Transaction Gas Used Reward
Age Block Fee Address BC Fee Address Voting Power Jailed Incoming
Block Uncle Number Difficulty Gas Used Reward
Loading